createdAt,value
2022-08-05T00:02:07.917Z,-23974.78
2022-08-05T00:04:14.425Z,-23970.09
2022-08-05T00:06:27.862Z,-23965.72
2022-08-05T00:08:35.641Z,-23964.16
2022-08-05T00:10:38.912Z,-23964.94
2022-08-05T00:12:55.873Z,-23963.38
2022-08-05T00:14:59.591Z,-23962.31
2022-08-05T00:17:22.237Z,-23959.50
2022-08-05T00:19:33.252Z,-23958.25
2022-08-05T00:21:36.810Z,-23957.31
2022-08-05T00:23:45.813Z,-23957.00
2022-08-05T00:25:50.183Z,-23956.38
2022-08-05T00:27:56.656Z,-23953.72
2022-08-05T00:30:03.067Z,-23954.50
2022-08-05T00:32:12.278Z,-23955.13
2022-08-05T00:34:53.413Z,-23954.66
2022-08-05T00:37:09.839Z,-23954.34
2022-08-05T00:39:04.997Z,-23952.31
2022-08-05T00:41:11.771Z,-23953.09
2022-08-05T00:43:15.378Z,-23953.56
2022-08-05T00:45:25.015Z,-23955.13
2022-08-05T00:47:57.337Z,-23957.31
2022-08-05T00:50:04.098Z,-23960.44
2022-08-05T00:52:08.204Z,-23960.28
2022-08-05T00:54:12.834Z,-23961.03
2022-08-05T00:56:17.299Z,-23963.06
2022-08-05T00:58:20.358Z,-23960.91
2022-08-05T01:00:26.025Z,-23962.94
2022-08-05T01:02:28.832Z,-23964.63
2022-08-05T01:04:31.484Z,-23973.06
2022-08-05T01:06:34.126Z,-23976.34
2022-08-05T01:08:43.038Z,-23989.44
2022-08-05T01:10:57.956Z,-23991.00
2022-08-05T01:13:13.347Z,-23991.94
2022-08-05T01:15:35.534Z,-23988.97
2022-08-05T01:17:44.660Z,-23984.75
2022-08-05T01:20:07.292Z,-23978.53
2022-08-05T01:22:41.833Z,-23977.59
2022-08-05T01:25:00.745Z,-23971.66
2022-08-05T01:27:17.799Z,-23971.03
2022-08-05T01:29:30.823Z,-23963.84
2022-08-05T01:31:42.446Z,-23961.81
2022-08-05T01:33:53.688Z,-23957.63
2022-08-05T01:36:00.077Z,-23956.69
2022-08-05T01:38:06.927Z,-23955.91
2022-08-05T01:40:11.605Z,-23952.31
2022-08-05T01:42:18.188Z,-23952.63
2022-08-05T01:44:24.713Z,-23953.56
2022-08-05T01:46:42.238Z,-23951.06
2022-08-05T01:48:50.040Z,-23945.13
2022-08-05T01:50:55.493Z,-23945.44
2022-08-05T01:53:02.583Z,-23943.72
2022-08-05T01:55:12.605Z,-23939.81
2022-08-05T01:58:29.946Z,-23939.03
2022-08-05T01:59:53.738Z,-23939.19
2022-08-05T02:01:59.075Z,-23939.81
2022-08-05T02:04:04.216Z,-23935.13
2022-08-05T02:06:33.502Z,-23938.88
2022-08-05T02:08:31.627Z,-23938.88
2022-08-05T02:10:40.363Z,-23935.59
2022-08-05T02:12:51.012Z,-23934.66
2022-08-05T02:15:04.448Z,-23932.00
2022-08-05T02:17:17.069Z,-23931.84
2022-08-05T02:19:46.952Z,-23930.75
2022-08-05T02:21:55.348Z,-23929.66
2022-08-05T02:24:05.336Z,-23931.38
2022-08-05T02:26:11.776Z,-23934.03
2022-08-05T02:28:15.957Z,-23930.59
2022-08-05T02:30:51.864Z,-23927.63
2022-08-05T02:33:01.056Z,-23929.34
2022-08-05T02:35:13.588Z,-23930.75
2022-08-05T02:37:18.285Z,-23925.47
2022-08-05T02:39:25.886Z,-23926.53
2022-08-05T02:41:42.947Z,-23925.47
2022-08-05T02:44:06.288Z,-23926.09
2022-08-05T02:46:17.717Z,-23923.56
2022-08-05T02:48:31.202Z,-23923.25
2022-08-05T02:50:34.667Z,-23920.91
2022-08-05T02:52:38.363Z,-23921.84
2022-08-05T02:54:52.064Z,-23920.91
2022-08-05T02:56:56.971Z,-23920.75
2022-08-05T02:59:01.451Z,-23914.97
2022-08-05T03:01:04.750Z,-23916.06
2022-08-05T03:03:10.543Z,-23916.53
2022-08-05T03:05:14.824Z,-23914.81
2022-08-05T03:07:40.473Z,-23917.31
2022-08-05T03:09:51.444Z,-23915.59
2022-08-05T03:11:57.887Z,-23914.81
2022-08-05T03:14:03.328Z,-23914.50
2022-08-05T03:16:07.253Z,-23910.44
2022-08-05T03:18:13.677Z,-23912.63
2022-08-05T03:20:20.182Z,-23912.63
2022-08-05T03:22:32.384Z,-23912.31
2022-08-05T03:24:35.549Z,-23913.41
2022-08-05T03:26:38.431Z,-23912.63
2022-08-05T03:28:41.350Z,-23907.31
2022-08-05T03:30:45.565Z,-23902.94
2022-08-05T03:32:50.442Z,-23905.75
2022-08-05T03:34:55.454Z,-23904.50
2022-08-05T03:36:58.227Z,-23905.13
2022-08-05T03:39:08.091Z,-23903.56
2022-08-05T03:41:17.109Z,-23902.31
2022-08-05T03:44:08.666Z,-23898.56
2022-08-05T03:45:57.432Z,-23898.88
2022-08-05T03:48:01.082Z,-23893.25
2022-08-05T03:50:05.870Z,-23890.75
2022-08-05T03:52:49.155Z,-23893.56
2022-08-05T03:55:34.206Z,-23891.38
2022-08-05T03:57:16.499Z,-23896.38
2022-08-05T03:59:24.691Z,-23889.19
2022-08-05T04:01:32.279Z,-23892.94
2022-08-05T04:03:37.978Z,-23893.56
2022-08-05T04:05:44.015Z,-23883.22
2022-08-05T04:07:58.147Z,-23882.28
2022-08-05T04:10:02.960Z,-23884.16
2022-08-05T04:12:11.392Z,-23887.00
2022-08-05T04:14:30.191Z,-23886.38
2022-08-05T04:16:35.394Z,-23888.88
2022-08-05T04:18:39.585Z,-23888.72
2022-08-05T04:20:43.847Z,-23878.84
2022-08-05T04:22:47.755Z,-23875.72
2022-08-05T04:24:52.413Z,-23873.06
2022-08-05T04:26:55.694Z,-23867.09
2022-08-05T04:29:01.291Z,-23867.25
2022-08-05T04:31:10.620Z,-23869.75
2022-08-05T04:33:14.072Z,-23873.38
2022-08-05T04:35:19.601Z,-23871.34
2022-08-05T04:38:00.708Z,-23880.88
2022-08-05T04:39:46.691Z,-23881.97
2022-08-05T04:41:56.190Z,-23882.91
2022-08-05T04:43:58.898Z,-23880.56
2022-08-05T04:46:03.140Z,-23875.72
2022-08-05T04:48:10.240Z,-23877.91
2022-08-05T04:50:34.653Z,-23872.44
2022-08-05T04:52:43.356Z,-23875.72
2022-08-05T04:54:47.521Z,-23875.72
2022-08-05T04:56:55.264Z,-23874.47
2022-08-05T04:59:00.294Z,-23875.72
2022-08-05T05:02:05.971Z,-23877.28
2022-08-05T05:03:45.698Z,-23882.59
2022-08-05T05:06:35.842Z,-23883.84
2022-08-05T05:08:14.399Z,-23883.22
2022-08-05T05:10:34.740Z,-23881.66
2022-08-05T05:12:37.439Z,-23882.44
2022-08-05T05:14:49.345Z,-23886.38
2022-08-05T05:16:54.490Z,-23886.38
2022-08-05T05:21:20.195Z,-23897.00
2022-08-05T05:23:24.195Z,-23900.13
2022-08-05T05:25:32.665Z,-23900.28
2022-08-05T05:27:44.567Z,-23902.31
2022-08-05T05:30:04.480Z,-23910.59
2022-08-05T05:32:08.124Z,-23911.69
2022-08-05T05:34:15.626Z,-23913.56
2022-08-05T05:36:19.334Z,-23917.31
2022-08-05T05:38:27.132Z,-23920.75
2022-08-05T05:40:32.071Z,-23919.19
2022-08-05T05:42:34.944Z,-23923.09
2022-08-05T05:44:42.911Z,-23928.56
2022-08-05T05:46:48.675Z,-23929.81
2022-08-05T05:48:53.916Z,-23928.28
2022-08-05T05:50:56.631Z,-23930.75
2022-08-05T05:52:59.255Z,-23931.38
2022-08-05T05:55:07.439Z,-23930.44
2022-08-05T05:57:19.046Z,-23933.88
2022-08-05T05:59:22.136Z,-23939.19
2022-08-05T06:01:25.377Z,-23937.63
2022-08-05T06:04:01.366Z,-23941.53
2022-08-05T06:06:02.534Z,-23947.94
2022-08-05T06:08:06.625Z,-23958.56
2022-08-05T06:10:14.096Z,-23960.44
2022-08-05T06:12:18.412Z,-23964.78
2022-08-05T06:14:22.332Z,-23960.59
2022-08-05T06:16:36.632Z,-23968.69
2022-08-05T06:18:39.761Z,-23969.78
2022-08-05T06:20:42.493Z,-23973.22
2022-08-05T06:22:50.600Z,-23992.25
2022-08-05T06:24:53.740Z,-23972.91
2022-08-05T06:26:57.762Z,-23974.94
2022-08-05T06:29:06.072Z,-23971.81
2022-08-05T06:31:23.187Z,-23988.19
2022-08-05T06:34:07.859Z,-24003.31
2022-08-05T06:36:07.719Z,-23985.06
2022-08-05T06:38:12.912Z,-23987.25
2022-08-05T06:40:18.203Z,-23978.22
2022-08-05T06:42:25.393Z,-23966.38
2022-08-05T06:44:28.367Z,-23982.72
2022-08-05T06:46:31.122Z,-24001.28
2022-08-05T06:48:52.623Z,-23996.59
2022-08-05T06:50:58.089Z,-24013.75
2022-08-05T06:53:03.717Z,-23991.63
2022-08-05T06:55:14.492Z,-23994.41
2022-08-05T06:58:02.540Z,-23982.72
2022-08-05T06:59:42.475Z,-23997.53
2022-08-05T07:01:57.763Z,-24004.53
2022-08-05T07:04:02.983Z,-24001.75
2022-08-05T07:06:14.399Z,-24009.69
2022-08-05T07:08:18.017Z,-24006.41
2022-08-05T07:10:21.949Z,-24026.97
2022-08-05T07:12:52.616Z,-24024.63
2022-08-05T07:15:14.262Z,-24062.28
2022-08-05T07:18:08.337Z,-24071.59
2022-08-05T07:22:28.460Z,-24060.88
2022-08-05T07:24:33.815Z,-24052.63
2022-08-05T07:26:47.181Z,-24052.00
2022-08-05T07:28:50.627Z,-24030.72
2022-08-05T07:30:55.287Z,-24042.22
2022-08-05T07:32:58.245Z,-24042.38
2022-08-05T07:35:00.922Z,-24080.44
2022-08-05T07:37:23.818Z,-24114.44
2022-08-05T07:40:26.527Z,-24036.63
2022-08-05T07:42:14.194Z,-24095.97
2022-08-05T07:44:19.098Z,-24069.56
2022-08-05T07:46:25.502Z,-24110.88
2022-08-05T07:49:03.125Z,-24090.84
2022-08-05T07:50:51.340Z,-24090.22
2022-08-05T07:52:54.095Z,-24091.63
2022-08-05T07:54:57.461Z,-24074.56
2022-08-05T07:57:50.565Z,-24068.50
2022-08-05T07:59:38.380Z,-24094.56
2022-08-05T08:01:52.161Z,-24120.66
2022-08-05T08:04:00.111Z,-24116.91
2022-08-05T08:06:04.559Z,-24101.41
2022-08-05T08:08:12.282Z,-24103.91
2022-08-05T08:10:15.339Z,-24118.00
2022-08-05T08:12:35.058Z,-24113.19
2022-08-05T08:14:42.407Z,-24142.50
2022-08-05T08:16:53.478Z,-24092.88
2022-08-05T08:18:56.656Z,-24106.53
2022-08-05T08:21:03.655Z,-24118.47
2022-08-05T08:23:07.506Z,-24108.53
2022-08-05T08:25:59.898Z,-24070.19
2022-08-05T08:27:53.651Z,-24098.00
2022-08-05T08:30:05.898Z,-24093.34
2022-08-05T08:32:28.065Z,-24126.53
2022-08-05T08:34:33.402Z,-24138.94
2022-08-05T08:36:48.868Z,-24098.31
2022-08-05T08:38:56.157Z,-24140.16
2022-08-05T08:41:01.382Z,-24155.50
2022-08-05T08:45:04.465Z,-24116.00
2022-08-05T08:45:29.858Z,-24140.78
2022-08-05T08:48:05.437Z,-24168.81
2022-08-05T08:50:13.132Z,-24132.72
2022-08-05T08:52:25.589Z,-24106.69
2022-08-05T08:54:28.918Z,-24153.03
2022-08-05T08:56:33.367Z,-24133.66
2022-08-05T08:58:44.563Z,-24117.22
2022-08-05T09:00:51.524Z,-24124.53
2022-08-05T09:02:55.985Z,-24098.59
2022-08-05T09:05:16.678Z,-24130.88
2022-08-05T09:07:29.025Z,-24164.31
2022-08-05T09:09:34.834Z,-24133.97
2022-08-05T09:11:53.649Z,-24126.22
2022-08-05T09:14:09.663Z,-24186.91
2022-08-05T09:16:22.491Z,-24227.06
2022-08-05T09:18:31.104Z,-24196.19
2022-08-05T09:20:36.655Z,-24158.13
2022-08-05T09:23:18.461Z,-24141.88
2022-08-05T09:25:24.568Z,-24133.34
2022-08-05T09:28:04.212Z,-24149.16
2022-08-05T09:30:08.467Z,-24170.06
2022-08-05T09:32:41.376Z,-24142.97
2022-08-05T09:34:51.414Z,-24202.66
2022-08-05T09:36:59.215Z,-24222.75
2022-08-05T09:39:17.991Z,-24180.41
2022-08-05T09:41:24.837Z,-24181.66
2022-08-05T09:43:40.538Z,-24154.56
2022-08-05T09:46:07.571Z,-24182.56
2022-08-05T09:48:21.143Z,-24182.88
2022-08-05T09:50:38.660Z,-24214.41
2022-08-05T09:52:48.339Z,-24191.53
2022-08-05T09:54:57.657Z,-24193.25
2022-08-05T09:57:01.220Z,-24181.19
2022-08-05T09:59:07.032Z,-24116.00
2022-08-05T10:01:15.709Z,-24198.34
2022-08-05T10:03:56.496Z,-24223.84
2022-08-05T10:06:15.587Z,-24252.97
2022-08-05T10:08:36.832Z,-24293.66
2022-08-05T10:10:53.600Z,-24251.75
2022-08-05T10:12:59.676Z,-24166.94
2022-08-05T10:15:17.137Z,-24152.41
2022-08-05T10:17:37.367Z,-24242.34
2022-08-05T10:20:02.856Z,-24189.06
2022-08-05T10:22:09.069Z,-24213.78
2022-08-05T10:24:19.487Z,-24181.19
2022-08-05T10:26:32.476Z,-24211.94
2022-08-05T10:28:36.448Z,-24228.63
2022-08-05T10:32:48.134Z,-24236.31
2022-08-05T10:33:04.371Z,-24285.78
2022-08-05T10:35:12.205Z,-24198.50
2022-08-05T10:37:16.640Z,-24192.94
2022-08-05T10:40:03.097Z,-24230.94
2022-08-05T10:41:56.800Z,-24171.75
2022-08-05T10:44:07.961Z,-24191.84
2022-08-05T10:46:14.261Z,-24191.53
2022-08-05T10:48:52.824Z,-24184.44
2022-08-05T10:51:01.835Z,-24198.50
2022-08-05T10:53:45.113Z,-24172.38
2022-08-05T10:56:14.529Z,-24177.00
2022-08-05T10:58:47.809Z,-24186.91
2022-08-05T11:00:55.052Z,-24185.06
2022-08-05T11:03:23.785Z,-24174.69
2022-08-05T11:05:29.313Z,-24182.28
2022-08-05T11:08:02.680Z,-24179.78
2022-08-05T11:10:03.697Z,-24181.66
2022-08-05T11:12:07.137Z,-24178.56
2022-08-05T11:14:13.736Z,-24166.81
2022-08-05T11:16:23.206Z,-24162.00
2022-08-05T11:18:36.961Z,-24171.75
2022-08-05T11:20:51.290Z,-24171.75
2022-08-05T11:22:58.026Z,-24174.38
2022-08-05T11:26:04.109Z,-24152.88
2022-08-05T11:28:00.516Z,-24177.00
2022-08-05T11:30:03.667Z,-24175.47
2022-08-05T11:32:26.321Z,-24176.53
2022-08-05T11:34:38.769Z,-24178.56
2022-08-05T11:36:52.785Z,-24174.84
2022-08-05T11:38:57.814Z,-24190.63
2022-08-05T11:41:34.329Z,-24190.00
2022-08-05T11:44:04.430Z,-24158.44
2022-08-05T11:46:30.601Z,-24178.72
2022-08-05T11:48:12.962Z,-24153.19
2022-08-05T11:50:17.431Z,-24164.94
2022-08-05T11:52:29.645Z,-24180.09
2022-08-05T11:54:34.996Z,-24150.84
2022-08-05T11:56:50.338Z,-24166.19
2022-08-05T11:58:54.821Z,-24173.31
2022-08-05T12:01:04.590Z,-24175.16
2022-08-05T12:03:29.328Z,-24170.19
2022-08-05T12:05:39.797Z,-24164.00
2022-08-05T12:08:09.013Z,-24182.88
2022-08-05T12:10:09.485Z,-24183.50
2022-08-05T12:12:22.544Z,-24182.56
2022-08-05T12:14:37.487Z,-24168.66
2022-08-05T12:16:45.129Z,-24173.91
2022-08-05T12:18:53.112Z,-24186.28
2022-08-05T12:20:56.133Z,-24176.69
2022-08-05T12:23:09.264Z,-24180.09
2022-08-05T12:25:14.185Z,-24171.44
2022-08-05T12:27:25.356Z,-24165.41
2022-08-05T12:29:37.980Z,-24192.94
2022-08-05T12:31:48.235Z,-24176.38
2022-08-05T12:33:57.267Z,-24181.34
2022-08-05T12:36:02.667Z,-24195.56
2022-08-05T12:38:07.156Z,-24185.22
2022-08-05T12:40:26.618Z,-24168.03
2022-08-05T12:42:33.104Z,-24163.41
2022-08-05T12:44:36.899Z,-24143.41
2022-08-05T12:46:45.705Z,-24161.06
2022-08-05T12:48:48.518Z,-24162.78
2022-08-05T12:52:10.685Z,-24188.59
2022-08-05T12:53:36.947Z,-24183.97
2022-08-05T12:55:42.348Z,-24208.69
2022-08-05T12:58:48.952Z,-24189.69
2022-08-05T13:02:01.884Z,-24186.44
2022-08-05T13:02:44.022Z,-24199.59
2022-08-05T13:04:54.936Z,-24211.47
2022-08-05T13:06:59.446Z,-24216.72
2022-08-05T13:09:08.725Z,-24221.22
2022-08-05T13:11:18.357Z,-24222.13
2022-08-05T13:14:04.875Z,-24225.38
2022-08-05T13:16:13.159Z,-24195.72
2022-08-05T13:18:20.563Z,-24183.50
2022-08-05T13:20:25.346Z,-24174.22
2022-08-05T13:22:31.281Z,-24156.44
2022-08-05T13:24:51.365Z,-24164.63
2022-08-05T13:26:57.007Z,-24175.16
2022-08-05T13:29:02.011Z,-24182.41
2022-08-05T13:31:13.883Z,-24157.22
2022-08-05T13:34:22.647Z,-24163.41
2022-08-05T13:35:42.980Z,-24179.63
2022-08-05T13:37:55.561Z,-24160.31
2022-08-05T13:40:16.048Z,-24157.38
2022-08-05T13:42:22.493Z,-24144.81
2022-08-05T13:44:29.167Z,-24153.19
2022-08-05T13:48:58.518Z,-24140.31
2022-08-05T13:51:07.467Z,-24147.28
2022-08-05T13:53:15.789Z,-24142.03
2022-08-05T13:55:41.421Z,-24136.31
2022-08-05T13:57:51.332Z,-24139.41
2022-08-05T13:59:59.372Z,-24137.69
2022-08-05T14:02:06.128Z,-24132.13
2022-08-05T14:04:39.255Z,-24135.84
2022-08-05T14:06:47.740Z,-24120.03
2022-08-05T14:09:01.444Z,-24124.06
2022-08-05T14:11:20.634Z,-24129.63
2022-08-05T14:13:25.436Z,-24133.34
2022-08-05T14:16:05.641Z,-24129.00
2022-08-05T14:17:54.975Z,-24127.31
2022-08-05T14:20:04.473Z,-24125.59
2022-08-05T14:22:11.899Z,-24117.38
2022-08-05T14:24:14.972Z,-24114.44
2022-08-05T14:26:35.470Z,-24111.19
2022-08-05T14:28:52.037Z,-24114.44
2022-08-05T14:30:56.613Z,-24118.47
2022-08-05T14:32:59.417Z,-24113.19
2022-08-05T14:35:02.083Z,-24107.00
2022-08-05T14:37:05.230Z,-24109.47
2022-08-05T14:39:08.090Z,-24104.81
2022-08-05T14:41:14.955Z,-24102.03
2022-08-05T14:43:20.585Z,-24097.84
2022-08-05T14:45:43.326Z,-24090.84
2022-08-05T14:48:03.774Z,-24090.84
2022-08-05T14:50:17.158Z,-24084.97
2022-08-05T14:52:42.913Z,-24086.81
2022-08-05T14:54:52.645Z,-24086.19
2022-08-05T14:56:56.293Z,-24085.09
2022-08-05T14:58:58.941Z,-24086.97
2022-08-05T15:01:01.718Z,-24082.78
2022-08-05T15:03:07.397Z,-24075.31
2022-08-05T15:05:13.647Z,-24070.34
2022-08-05T15:08:06.214Z,-24070.34
2022-08-05T15:09:51.943Z,-24064.00
2022-08-05T15:11:57.706Z,-24073.78
2022-08-05T15:14:00.489Z,-24075.94
2022-08-05T15:16:03.363Z,-24065.06
2022-08-05T15:18:07.446Z,-24066.47
2022-08-05T15:20:17.136Z,-24061.03
2022-08-05T15:22:22.283Z,-24073.78
2022-08-05T15:24:30.384Z,-24044.69
2022-08-05T15:26:33.604Z,-24044.84
2022-08-05T15:28:36.323Z,-24026.19
2022-08-05T15:30:46.647Z,-24003.47
2022-08-05T15:32:55.483Z,-24012.66
2022-08-05T15:35:04.070Z,-24022.75
2022-08-05T15:37:15.499Z,-24007.81
2022-08-05T15:41:04.090Z,-23991.63
2022-08-05T15:41:56.322Z,-23992.88
2022-08-05T15:44:01.912Z,-24013.13
2022-08-05T15:46:07.338Z,-24027.44
2022-08-05T15:48:14.046Z,-24030.25
2022-08-05T15:50:18.667Z,-24026.66
2022-08-05T15:52:52.163Z,-24025.88
2022-08-05T15:54:52.803Z,-24029.47
2022-08-05T15:56:55.647Z,-24035.22
2022-08-05T15:58:58.422Z,-24021.38
2022-08-05T16:01:12.018Z,-24014.97
2022-08-05T16:03:19.558Z,-24019.66
2022-08-05T16:05:28.321Z,-24024.94
2022-08-05T16:07:31.417Z,-24023.38
2022-08-05T16:09:34.582Z,-24015.13
2022-08-05T16:11:42.702Z,-24014.53
2022-08-05T16:13:46.560Z,-24013.28
2022-08-05T16:15:49.253Z,-24018.41
2022-08-05T16:17:57.312Z,-24025.09
2022-08-05T16:20:04.340Z,-24014.66
2022-08-05T16:22:11.000Z,-24014.97
2022-08-05T16:24:40.209Z,-24016.38
2022-08-05T16:26:51.734Z,-24009.22
2022-08-05T16:28:55.173Z,-24008.13
2022-08-05T16:30:58.526Z,-24006.88
2022-08-05T16:33:01.968Z,-24008.75
2022-08-05T16:35:05.205Z,-24013.44
2022-08-05T16:38:03.073Z,-24010.00
2022-08-05T16:40:06.026Z,-24002.53
2022-08-05T16:42:14.830Z,-23990.53
2022-08-05T16:44:18.793Z,-23983.34
2022-08-05T16:46:25.031Z,-23987.25
2022-08-05T16:48:33.585Z,-23986.63
2022-08-05T16:50:39.048Z,-23983.50
2022-08-05T16:52:45.949Z,-23981.47
2022-08-05T16:54:48.913Z,-23980.22
2022-08-05T16:56:52.433Z,-23987.25
2022-08-05T16:58:55.224Z,-23992.88
2022-08-05T17:00:57.971Z,-23996.13
2022-08-05T17:03:02.034Z,-23995.03
2022-08-05T17:05:05.135Z,-23993.03
2022-08-05T17:07:11.178Z,-23992.88
2022-08-05T17:09:15.713Z,-23986.00
2022-08-05T17:11:18.636Z,-23984.44
2022-08-05T17:13:37.452Z,-23991.94
2022-08-05T17:15:49.681Z,-23988.81
2022-08-05T17:17:55.706Z,-23995.19
2022-08-05T17:20:00.775Z,-23980.69
2022-08-05T17:22:05.202Z,-23981.31
2022-08-05T17:24:28.357Z,-23985.38
2022-08-05T17:26:33.362Z,-23984.75
2022-08-05T17:28:36.512Z,-23974.78
2022-08-05T17:30:42.619Z,-23977.28
2022-08-05T17:32:54.354Z,-23975.72
2022-08-05T17:34:58.158Z,-23974.78
2022-08-05T17:37:01.252Z,-23977.59
2022-08-05T17:39:05.072Z,-23982.72
2022-08-05T17:41:11.643Z,-23978.69
2022-08-05T17:43:50.588Z,-23965.88
2022-08-05T17:45:54.854Z,-23965.72
2022-08-05T17:47:58.593Z,-23960.75
2022-08-05T17:50:10.433Z,-23960.13
2022-08-05T17:52:13.897Z,-23965.41
2022-08-05T17:54:23.273Z,-23967.44
2022-08-05T17:56:28.467Z,-23965.25
2022-08-05T17:58:32.921Z,-23964.00
2022-08-05T18:00:35.611Z,-23960.75
2022-08-05T18:02:43.500Z,-23962.75
2022-08-05T18:04:51.393Z,-23960.75
2022-08-05T18:07:00.566Z,-23961.97
2022-08-05T18:09:04.133Z,-23955.91
2022-08-05T18:11:24.132Z,-23955.75
2022-08-05T18:13:36.700Z,-23957.63
2022-08-05T18:15:46.602Z,-23949.34
2022-08-05T18:17:59.491Z,-23946.22
2022-08-05T18:20:08.190Z,-23944.19
2022-08-05T18:22:18.086Z,-23943.09
2022-08-05T18:24:20.983Z,-23932.63
2022-08-05T18:26:29.147Z,-23935.44
2022-08-05T18:28:39.201Z,-23933.41
2022-08-05T18:30:42.108Z,-23935.75
2022-08-05T18:32:53.394Z,-23931.53
2022-08-05T18:35:02.718Z,-23925.75
2022-08-05T18:37:12.213Z,-23928.28
2022-08-05T18:39:42.021Z,-23929.97
2022-08-05T18:41:56.952Z,-23930.28
2022-08-05T18:44:05.515Z,-23921.69
2022-08-05T18:46:09.750Z,-23920.44
2022-08-05T18:48:30.127Z,-23915.44
2022-08-05T18:52:06.301Z,-23917.31
2022-08-05T18:53:26.452Z,-23924.84
2022-08-05T18:55:31.234Z,-23917.00
2022-08-05T18:57:43.660Z,-23912.78
2022-08-05T19:00:02.329Z,-23911.84
2022-08-05T19:02:11.505Z,-23912.94
2022-08-05T19:04:30.541Z,-23913.88
2022-08-05T19:06:44.618Z,-23903.56
2022-08-05T19:08:48.309Z,-23906.84
2022-08-05T19:10:51.193Z,-23908.25
2022-08-05T19:12:53.934Z,-23902.78
2022-08-05T19:15:00.591Z,-23901.69
2022-08-05T19:17:05.576Z,-23905.91
2022-08-05T19:19:10.475Z,-23897.00
2022-08-05T19:21:15.754Z,-23899.19
2022-08-05T19:24:03.292Z,-23895.13
2022-08-05T19:25:43.724Z,-23894.81
2022-08-05T19:27:47.138Z,-23895.75
2022-08-05T19:29:52.551Z,-23898.25
2022-08-05T19:31:57.342Z,-23891.38
2022-08-05T19:34:00.232Z,-23891.06
2022-08-05T19:36:06.192Z,-23895.44
2022-08-05T19:38:09.595Z,-23890.44
2022-08-05T19:40:12.884Z,-23889.97
2022-08-05T19:42:17.946Z,-23889.81
2022-08-05T19:44:20.889Z,-23893.72
2022-08-05T19:46:29.559Z,-23886.69
2022-08-05T19:48:37.059Z,-23893.56
2022-08-05T19:50:40.037Z,-23882.59
2022-08-05T19:52:43.274Z,-23890.44
2022-08-05T19:54:50.596Z,-23884.94
2022-08-05T19:56:54.133Z,-23885.75
2022-08-05T19:58:56.960Z,-23884.16
2022-08-05T20:00:59.951Z,-23881.34
2022-08-05T20:03:08.780Z,-23882.28
2022-08-05T20:05:16.403Z,-23874.16
2022-08-05T20:07:47.311Z,-23877.75
2022-08-05T20:09:55.037Z,-23872.59
2022-08-05T20:11:59.403Z,-23870.72
2022-08-05T20:14:12.398Z,-23871.66
2022-08-05T20:16:19.591Z,-23871.66
2022-08-05T20:18:33.747Z,-23862.56
2022-08-05T20:20:44.454Z,-23856.31
2022-08-05T20:22:47.506Z,-23850.03
2022-08-05T20:24:52.073Z,-23847.69
2022-08-05T20:26:56.487Z,-23844.56
2022-08-05T20:29:00.847Z,-23844.72
2022-08-05T20:31:04.217Z,-23839.84
2022-08-05T20:33:07.464Z,-23829.19
2022-08-05T20:35:10.542Z,-23837.81
2022-08-05T20:37:24.185Z,-23846.91
2022-08-05T20:39:38.802Z,-23843.44
2022-08-05T20:41:43.904Z,-23851.44
2022-08-05T20:43:59.100Z,-23840.00
2022-08-05T20:46:06.738Z,-23844.25
2022-08-05T20:48:09.466Z,-23836.09
2022-08-05T20:50:12.320Z,-23842.50
2022-08-05T20:52:16.376Z,-23840.00
2022-08-05T20:54:20.769Z,-23833.28
2022-08-05T20:56:27.674Z,-23835.94
2022-08-05T20:58:32.744Z,-23821.66
2022-08-05T21:00:44.290Z,-23830.28
2022-08-05T21:02:57.618Z,-23831.22
2022-08-05T21:05:02.571Z,-23827.63
2022-08-05T21:07:05.528Z,-23830.75
2022-08-05T21:09:12.158Z,-23834.53
2022-08-05T21:12:06.766Z,-23840.16
2022-08-05T21:13:48.044Z,-23824.16
2022-08-05T21:15:59.501Z,-23824.00
2022-08-05T21:18:02.212Z,-23819.63
2022-08-05T21:20:10.170Z,-23828.09
2022-08-05T21:22:13.119Z,-23828.09
2022-08-05T21:24:19.481Z,-23824.00
2022-08-05T21:26:22.603Z,-23820.25
2022-08-05T21:28:30.667Z,-23825.28
2022-08-05T21:30:33.628Z,-23823.53
2022-08-05T21:32:36.407Z,-23829.03
2022-08-05T21:34:41.168Z,-23829.66
2022-08-05T21:36:46.644Z,-23820.88
2022-08-05T21:38:51.936Z,-23812.56
2022-08-05T21:40:56.503Z,-23819.94
2022-08-05T21:42:59.399Z,-23815.38
2022-08-05T21:45:02.622Z,-23814.59
2022-08-05T21:47:17.318Z,-23813.66
2022-08-05T21:49:58.908Z,-23817.75
2022-08-05T21:52:27.155Z,-23814.59
2022-08-05T21:54:14.969Z,-23816.66
2022-08-05T21:56:18.977Z,-23807.69
2022-08-05T21:58:24.829Z,-23803.47
2022-08-05T22:00:33.530Z,-23808.97
2022-08-05T22:02:36.545Z,-23811.94
2022-08-05T22:04:39.490Z,-23816.19
2022-08-05T22:06:42.818Z,-23816.81
2022-08-05T22:08:53.611Z,-23807.38
2022-08-05T22:10:57.989Z,-23818.22
2022-08-05T22:14:05.203Z,-23810.38
2022-08-05T22:16:00.341Z,-23816.47
2022-08-05T22:17:48.556Z,-23819.31
2022-08-05T22:20:02.681Z,-23822.13
2022-08-05T22:22:15.465Z,-23814.91
2022-08-05T22:24:39.594Z,-23811.47
2022-08-05T22:27:01.365Z,-23810.38
2022-08-05T22:29:11.055Z,-23811.94
2022-08-05T22:31:17.072Z,-23808.66
2022-08-05T22:33:55.688Z,-23804.56
2022-08-05T22:35:48.802Z,-23814.28
2022-08-05T22:37:58.643Z,-23816.34
2022-08-05T22:40:02.584Z,-23813.97
2022-08-05T22:42:11.255Z,-23819.00
2022-08-05T22:44:19.144Z,-23813.66
2022-08-05T22:46:23.581Z,-23813.66
2022-08-05T22:48:28.602Z,-23807.69
2022-08-05T22:50:31.473Z,-23817.13
2022-08-05T22:52:34.479Z,-23814.91
2022-08-05T22:54:37.855Z,-23815.22
2022-08-05T22:56:41.628Z,-23812.56
2022-08-05T22:58:44.879Z,-23808.03
2022-08-05T23:00:48.920Z,-23810.38
2022-08-05T23:02:53.292Z,-23820.88
2022-08-05T23:04:56.298Z,-23818.06
2022-08-05T23:06:59.006Z,-23807.06
2022-08-05T23:09:27.003Z,-23812.41
2022-08-05T23:11:27.162Z,-23802.19
2022-08-05T23:13:33.502Z,-23809.13
2022-08-05T23:15:37.345Z,-23807.69
2022-08-05T23:18:00.903Z,-23807.06
2022-08-05T23:20:10.511Z,-23808.50
2022-08-05T23:22:19.876Z,-23813.03
2022-08-05T23:24:30.345Z,-23805.03
2022-08-05T23:26:33.037Z,-23809.91
2022-08-05T23:28:36.073Z,-23802.69
2022-08-05T23:30:43.427Z,-23805.81
2022-08-05T23:32:47.816Z,-23811.47
2022-08-05T23:34:52.077Z,-23813.66
2022-08-05T23:36:55.187Z,-23804.09
2022-08-05T23:38:57.863Z,-23808.66
2022-08-05T23:41:02.371Z,-23797.66
2022-08-05T23:43:11.308Z,-23798.59
2022-08-05T23:45:27.383Z,-23800.47
2022-08-05T23:47:35.746Z,-23804.25
2022-08-05T23:49:56.424Z,-23799.69
2022-08-05T23:52:17.012Z,-23795.16
2022-08-05T23:54:25.847Z,-23798.28
2022-08-05T23:56:29.293Z,-23786.97
2022-08-05T23:58:32.650Z,-23790.75
